sensor_id;sensor_type;location;lat;lon;timestamp;pressure;altitude;pressure_sealevel;temperature
6550;BMP280;15142;48.888;9.134;2022-10-31T00:01:57;98627.41;;;11.69
6550;BMP280;15142;48.888;9.134;2022-10-31T00:04:24;98628.91;;;11.70
6550;BMP280;15142;48.888;9.134;2022-10-31T00:06:51;98620.97;;;11.71
6550;BMP280;15142;48.888;9.134;2022-10-31T00:09:18;98616.09;;;11.75
6550;BMP280;15142;48.888;9.134;2022-10-31T00:11:45;98617.34;;;11.82
6550;BMP280;15142;48.888;9.134;2022-10-31T00:14:11;98630.41;;;11.81
6550;BMP280;15142;48.888;9.134;2022-10-31T00:16:38;98620.66;;;11.78
6550;BMP280;15142;48.888;9.134;2022-10-31T00:19:07;98625.78;;;11.78
6550;BMP280;15142;48.888;9.134;2022-10-31T00:21:34;98618.34;;;11.86
6550;BMP280;15142;48.888;9.134;2022-10-31T00:24:01;98627.28;;;11.89
6550;BMP280;15142;48.888;9.134;2022-10-31T00:26:29;98623.19;;;11.88
6550;BMP280;15142;48.888;9.134;2022-10-31T00:28:57;98624.66;;;11.94
6550;BMP280;15142;48.888;9.134;2022-10-31T00:31:26;98622.59;;;12.00
6550;BMP280;15142;48.888;9.134;2022-10-31T00:33:53;98622.06;;;12.03
6550;BMP280;15142;48.888;9.134;2022-10-31T00:36:20;98618.53;;;11.95
6550;BMP280;15142;48.888;9.134;2022-10-31T00:38:47;98623.59;;;11.99
6550;BMP280;15142;48.888;9.134;2022-10-31T00:41:16;98620.53;;;12.02
6550;BMP280;15142;48.888;9.134;2022-10-31T00:43:43;98620.06;;;11.96
6550;BMP280;15142;48.888;9.134;2022-10-31T00:46:10;98626.78;;;11.87
6550;BMP280;15142;48.888;9.134;2022-10-31T00:48:37;98621.41;;;11.88
6550;BMP280;15142;48.888;9.134;2022-10-31T00:51:04;98616.28;;;11.88
6550;BMP280;15142;48.888;9.134;2022-10-31T00:53:33;98602.47;;;11.89
6550;BMP280;15142;48.888;9.134;2022-10-31T00:56:00;98614.94;;;11.96
6550;BMP280;15142;48.888;9.134;2022-10-31T00:58:27;98610.88;;;11.95
6550;BMP280;15142;48.888;9.134;2022-10-31T01:00:54;98609.84;;;11.96
6550;BMP280;15142;48.888;9.134;2022-10-31T01:03:22;98612.91;;;11.93
6550;BMP280;15142;48.888;9.134;2022-10-31T01:05:57;98609.84;;;11.91
6550;BMP280;15142;48.888;9.134;2022-10-31T01:08:23;98609.63;;;11.87
6550;BMP280;15142;48.888;9.134;2022-10-31T01:11:03;98616.53;;;11.87
6550;BMP280;15142;48.888;9.134;2022-10-31T01:13:32;98613.22;;;11.86
6550;BMP280;15142;48.888;9.134;2022-10-31T01:16:01;98607.31;;;11.86
6550;BMP280;15142;48.888;9.134;2022-10-31T01:18:28;98617.06;;;11.89
6550;BMP280;15142;48.888;9.134;2022-10-31T01:21:00;98615.50;;;11.88
6550;BMP280;15142;48.888;9.134;2022-10-31T01:23:27;98612.44;;;11.86
6550;BMP280;15142;48.888;9.134;2022-10-31T01:26:08;98619.59;;;11.84
6550;BMP280;15142;48.888;9.134;2022-10-31T01:28:35;98611.94;;;11.84
6550;BMP280;15142;48.888;9.134;2022-10-31T01:31:04;98609.63;;;11.87
6550;BMP280;15142;48.888;9.134;2022-10-31T01:33:33;98608.88;;;11.87
6550;BMP280;15142;48.888;9.134;2022-10-31T01:36:00;98617.03;;;11.84
6550;BMP280;15142;48.888;9.134;2022-10-31T01:38:27;98608.38;;;11.80
6550;BMP280;15142;48.888;9.134;2022-10-31T01:40:53;98606.88;;;11.79
6550;BMP280;15142;48.888;9.134;2022-10-31T01:43:21;98609.19;;;11.75
6550;BMP280;15142;48.888;9.134;2022-10-31T01:45:51;98620.91;;;11.81
6550;BMP280;15142;48.888;9.134;2022-10-31T01:48:23;98616.56;;;11.82
6550;BMP280;15142;48.888;9.134;2022-10-31T01:50:53;98609.19;;;11.80
6550;BMP280;15142;48.888;9.134;2022-10-31T01:53:21;98610.22;;;11.74
6550;BMP280;15142;48.888;9.134;2022-10-31T01:55:48;98607.44;;;11.76
6550;BMP280;15142;48.888;9.134;2022-10-31T01:58:19;98607.16;;;11.72
6550;BMP280;15142;48.888;9.134;2022-10-31T02:00:50;98609.00;;;11.67
6550;BMP280;15142;48.888;9.134;2022-10-31T02:03:18;98614.34;;;11.66
6550;BMP280;15142;48.888;9.134;2022-10-31T02:05:46;98607.50;;;11.61
6550;BMP280;15142;48.888;9.134;2022-10-31T02:08:16;98619.75;;;11.64
6550;BMP280;15142;48.888;9.134;2022-10-31T02:10:48;98611.84;;;11.61
6550;BMP280;15142;48.888;9.134;2022-10-31T02:13:16;98607.22;;;11.58
6550;BMP280;15142;48.888;9.134;2022-10-31T02:15:51;98612.09;;;11.59
6550;BMP280;15142;48.888;9.134;2022-10-31T02:18:19;98611.34;;;11.54
6550;BMP280;15142;48.888;9.134;2022-10-31T02:20:55;98606.00;;;11.55
6550;BMP280;15142;48.888;9.134;2022-10-31T02:32:34;98606.53;;;11.52
6550;BMP280;15142;48.888;9.134;2022-10-31T02:35:10;98610.09;;;11.51
6550;BMP280;15142;48.888;9.134;2022-10-31T02:37:43;98608.56;;;11.50
6550;BMP280;15142;48.888;9.134;2022-10-31T02:40:17;98608.56;;;11.50
6550;BMP280;15142;48.888;9.134;2022-10-31T02:43:07;98609.09;;;11.47
6550;BMP280;15142;48.888;9.134;2022-10-31T02:45:41;98608.34;;;11.47
6550;BMP280;15142;48.888;9.134;2022-10-31T02:48:16;98601.66;;;11.46
6550;BMP280;15142;48.888;9.134;2022-10-31T02:50:49;98605.53;;;11.48
6550;BMP280;15142;48.888;9.134;2022-10-31T02:53:17;98605.03;;;11.46
6550;BMP280;15142;48.888;9.134;2022-10-31T02:55:57;98596.84;;;11.39
6550;BMP280;15142;48.888;9.134;2022-10-31T02:58:26;98598.19;;;11.32
6550;BMP280;15142;48.888;9.134;2022-10-31T03:01:20;98600.47;;;11.29
6550;BMP280;15142;48.888;9.134;2022-10-31T03:03:58;98589.75;;;11.27
6550;BMP280;15142;48.888;9.134;2022-10-31T03:06:31;98594.09;;;11.21
6550;BMP280;15142;48.888;9.134;2022-10-31T03:09:03;98597.47;;;11.12
6550;BMP280;15142;48.888;9.134;2022-10-31T03:11:37;98594.16;;;11.11
6550;BMP280;15142;48.888;9.134;2022-10-31T03:14:14;98594.16;;;11.16
6550;BMP280;15142;48.888;9.134;2022-10-31T03:16:46;98595.44;;;11.19
6550;BMP280;15142;48.888;9.134;2022-10-31T03:19:17;98596.44;;;11.18
6550;BMP280;15142;48.888;9.134;2022-10-31T03:21:47;98592.88;;;11.09
6550;BMP280;15142;48.888;9.134;2022-10-31T03:24:17;98598.25;;;11.07
6550;BMP280;15142;48.888;9.134;2022-10-31T03:26:48;98595.44;;;11.04
6550;BMP280;15142;48.888;9.134;2022-10-31T03:29:19;98600.03;;;11.07
6550;BMP280;15142;48.888;9.134;2022-10-31T03:31:50;98602.59;;;11.07
6550;BMP280;15142;48.888;9.134;2022-10-31T03:34:19;98604.63;;;11.05
6550;BMP280;15142;48.888;9.134;2022-10-31T03:36:48;98601.09;;;11.01
6550;BMP280;15142;48.888;9.134;2022-10-31T03:39:18;98614.94;;;10.90
6550;BMP280;15142;48.888;9.134;2022-10-31T03:41:53;98608.00;;;10.86
6550;BMP280;15142;48.888;9.134;2022-10-31T03:44:22;98609.03;;;10.85
6550;BMP280;15142;48.888;9.134;2022-10-31T03:46:57;98608.81;;;10.72
6550;BMP280;15142;48.888;9.134;2022-10-31T03:49:26;98609.31;;;10.74
6550;BMP280;15142;48.888;9.134;2022-10-31T03:51:59;98606.25;;;10.77
6550;BMP280;15142;48.888;9.134;2022-10-31T03:54:33;98609.56;;;10.82
6550;BMP280;15142;48.888;9.134;2022-10-31T03:57:06;98609.81;;;10.85
6550;BMP280;15142;48.888;9.134;2022-10-31T03:59:36;98605.72;;;10.89
6550;BMP280;15142;48.888;9.134;2022-10-31T04:02:08;98595.22;;;10.96
6550;BMP280;15142;48.888;9.134;2022-10-31T04:04:39;98593.91;;;10.98
6550;BMP280;15142;48.888;9.134;2022-10-31T04:07:07;98596.78;;;10.97
6550;BMP280;15142;48.888;9.134;2022-10-31T04:09:36;98591.44;;;10.88
6550;BMP280;15142;48.888;9.134;2022-10-31T04:12:06;98596.50;;;10.83
6550;BMP280;15142;48.888;9.134;2022-10-31T04:14:54;98597.06;;;10.80
6550;BMP280;15142;48.888;9.134;2022-10-31T04:17:23;98588.09;;;10.78
6550;BMP280;15142;48.888;9.134;2022-10-31T04:19:54;98590.94;;;10.72
6550;BMP280;15142;48.888;9.134;2022-10-31T04:22:20;98590.13;;;10.76
6550;BMP280;15142;48.888;9.134;2022-10-31T04:24:47;98587.09;;;10.74
6550;BMP280;15142;48.888;9.134;2022-10-31T04:27:15;98578.19;;;10.67
6550;BMP280;15142;48.888;9.134;2022-10-31T04:29:42;98582.53;;;10.61
6550;BMP280;15142;48.888;9.134;2022-10-31T04:32:09;98579.72;;;10.58
6550;BMP280;15142;48.888;9.134;2022-10-31T04:34:36;98587.91;;;10.55
6550;BMP280;15142;48.888;9.134;2022-10-31T04:37:05;98580.75;;;10.57
6550;BMP280;15142;48.888;9.134;2022-10-31T04:39:33;98576.16;;;10.59
6550;BMP280;15142;48.888;9.134;2022-10-31T04:42:18;98576.13;;;10.64
6550;BMP280;15142;48.888;9.134;2022-10-31T04:44:45;98570.00;;;10.70
6550;BMP280;15142;48.888;9.134;2022-10-31T04:47:13;98568.47;;;10.74
6550;BMP280;15142;48.888;9.134;2022-10-31T04:49:42;98562.84;;;10.72
6550;BMP280;15142;48.888;9.134;2022-10-31T04:52:11;98562.84;;;10.72
6550;BMP280;15142;48.888;9.134;2022-10-31T04:54:37;98553.66;;;10.71
6550;BMP280;15142;48.888;9.134;2022-10-31T04:57:42;98552.38;;;10.68
6550;BMP280;15142;48.888;9.134;2022-10-31T05:00:11;98559.81;;;10.65
6550;BMP280;15142;48.888;9.134;2022-10-31T05:02:45;98558.50;;;10.62
6550;BMP280;15142;48.888;9.134;2022-10-31T05:05:12;98559.81;;;10.60
6550;BMP280;15142;48.888;9.134;2022-10-31T05:07:42;98554.97;;;10.58
6550;BMP280;15142;48.888;9.134;2022-10-31T05:10:09;98552.94;;;10.55
6550;BMP280;15142;48.888;9.134;2022-10-31T05:12:37;98559.03;;;10.54
6550;BMP280;15142;48.888;9.134;2022-10-31T05:15:27;98560.81;;;10.54
6550;BMP280;15142;48.888;9.134;2022-10-31T05:18:13;98549.09;;;10.53
6550;BMP280;15142;48.888;9.134;2022-10-31T05:20:58;98546.53;;;10.53
6550;BMP280;15142;48.888;9.134;2022-10-31T05:23:31;98548.09;;;10.49
6550;BMP280;15142;48.888;9.134;2022-10-31T05:25:59;98551.66;;;10.48
6550;BMP280;15142;48.888;9.134;2022-10-31T05:28:25;98547.59;;;10.47
6550;BMP280;15142;48.888;9.134;2022-10-31T05:30:53;98548.59;;;10.46
6550;BMP280;15142;48.888;9.134;2022-10-31T05:33:20;98550.66;;;10.44
6550;BMP280;15142;48.888;9.134;2022-10-31T05:36:02;98544.03;;;10.43
6550;BMP280;15142;48.888;9.134;2022-10-31T05:38:34;98541.72;;;10.42
6550;BMP280;15142;48.888;9.134;2022-10-31T05:41:15;98544.00;;;10.38
6550;BMP280;15142;48.888;9.134;2022-10-31T05:43:45;98534.59;;;10.34
6550;BMP280;15142;48.888;9.134;2022-10-31T05:46:12;98534.06;;;10.32
6550;BMP280;15142;48.888;9.134;2022-10-31T05:48:57;98534.84;;;10.27
6550;BMP280;15142;48.888;9.134;2022-10-31T05:51:43;98531.28;;;10.23
6550;BMP280;15142;48.888;9.134;2022-10-31T05:54:11;98534.59;;;10.24
6550;BMP280;15142;48.888;9.134;2022-10-31T05:56:38;98538.41;;;10.21
6550;BMP280;15142;48.888;9.134;2022-10-31T05:59:05;98535.38;;;10.19
6550;BMP280;15142;48.888;9.134;2022-10-31T06:01:32;98547.59;;;10.18
6550;BMP280;15142;48.888;9.134;2022-10-31T06:04:04;98545.56;;;10.19
6550;BMP280;15142;48.888;9.134;2022-10-31T06:06:32;98539.44;;;10.20
6550;BMP280;15142;48.888;9.134;2022-10-31T06:08:58;98536.13;;;10.15
6550;BMP280;15142;48.888;9.134;2022-10-31T06:11:27;98535.34;;;10.15
6550;BMP280;15142;48.888;9.134;2022-10-31T06:14:03;98534.84;;;10.13
6550;BMP280;15142;48.888;9.134;2022-10-31T06:16:51;98535.38;;;10.19
6550;BMP280;15142;48.888;9.134;2022-10-31T06:19:36;98527.72;;;10.19
6550;BMP280;15142;48.888;9.134;2022-10-31T06:22:03;98536.88;;;10.20
6550;BMP280;15142;48.888;9.134;2022-10-31T06:24:31;98533.81;;;10.23
6550;BMP280;15142;48.888;9.134;2022-10-31T06:27:18;98539.44;;;10.25
6550;BMP280;15142;48.888;9.134;2022-10-31T06:29:45;98536.66;;;10.27
6550;BMP280;15142;48.888;9.134;2022-10-31T06:32:20;98527.69;;;10.24
6550;BMP280;15142;48.888;9.134;2022-10-31T06:34:47;98543.50;;;10.26
6550;BMP280;15142;48.888;9.134;2022-10-31T06:37:14;98540.97;;;10.26
6550;BMP280;15142;48.888;9.134;2022-10-31T06:39:44;98539.41;;;10.30
6550;BMP280;15142;48.888;9.134;2022-10-31T06:42:15;98537.88;;;10.29
6550;BMP280;15142;48.888;9.134;2022-10-31T06:44:43;98537.38;;;10.32
6550;BMP280;15142;48.888;9.134;2022-10-31T06:47:29;98531.53;;;10.37
6550;BMP280;15142;48.888;9.134;2022-10-31T06:50:08;98531.53;;;10.37
6550;BMP280;15142;48.888;9.134;2022-10-31T06:52:35;98537.38;;;10.42
6550;BMP280;15142;48.888;9.134;2022-10-31T06:55:03;98536.84;;;10.55
6550;BMP280;15142;48.888;9.134;2022-10-31T06:57:32;98536.56;;;10.61
6550;BMP280;15142;48.888;9.134;2022-10-31T06:59:59;98540.41;;;10.69
6550;BMP280;15142;48.888;9.134;2022-10-31T07:02:40;98538.59;;;10.79
6550;BMP280;15142;48.888;9.134;2022-10-31T07:05:07;98541.88;;;10.84
6550;BMP280;15142;48.888;9.134;2022-10-31T07:07:33;98548.22;;;10.92
6550;BMP280;15142;48.888;9.134;2022-10-31T07:10:00;98544.91;;;10.96
6550;BMP280;15142;48.888;9.134;2022-10-31T07:12:42;98544.88;;;11.01
6550;BMP280;15142;48.888;9.134;2022-10-31T07:15:10;98546.41;;;11.07
6550;BMP280;15142;48.888;9.134;2022-10-31T07:17:37;98549.41;;;11.14
6550;BMP280;15142;48.888;9.134;2022-10-31T07:20:05;98548.88;;;11.22
6550;BMP280;15142;48.888;9.134;2022-10-31T07:22:33;98551.91;;;11.34
6550;BMP280;15142;48.888;9.134;2022-10-31T07:24:59;98551.38;;;11.37
6550;BMP280;15142;48.888;9.134;2022-10-31T07:27:45;98558.00;;;11.38
6550;BMP280;15142;48.888;9.134;2022-10-31T07:30:14;98551.59;;;11.45
6550;BMP280;15142;48.888;9.134;2022-10-31T07:32:44;98557.94;;;11.52
6550;BMP280;15142;48.888;9.134;2022-10-31T07:35:14;98554.78;;;11.65
6550;BMP280;15142;48.888;9.134;2022-10-31T07:37:53;98557.03;;;11.71
6550;BMP280;15142;48.888;9.134;2022-10-31T07:40:21;98561.84;;;11.83
6550;BMP280;15142;48.888;9.134;2022-10-31T07:42:50;98555.66;;;11.84
6550;BMP280;15142;48.888;9.134;2022-10-31T07:45:36;98558.22;;;11.89
6550;BMP280;15142;48.888;9.134;2022-10-31T07:48:26;98551.53;;;11.93
6550;BMP280;15142;48.888;9.134;2022-10-31T07:51:11;98551.94;;;12.04
6550;BMP280;15142;48.888;9.134;2022-10-31T07:53:40;98553.13;;;12.17
6550;BMP280;15142;48.888;9.134;2022-10-31T07:56:15;98552.06;;;12.23
6550;BMP280;15142;48.888;9.134;2022-10-31T07:58:42;98551.97;;;12.32
6550;BMP280;15142;48.888;9.134;2022-10-31T08:01:10;98549.31;;;12.37
6550;BMP280;15142;48.888;9.134;2022-10-31T08:03:46;98546.47;;;12.44
6550;BMP280;15142;48.888;9.134;2022-10-31T08:06:47;98539.72;;;12.53
6550;BMP280;15142;48.888;9.134;2022-10-31T08:09:26;98552.00;;;12.56
6550;BMP280;15142;48.888;9.134;2022-10-31T08:11:54;98554.25;;;12.62
6550;BMP280;15142;48.888;9.134;2022-10-31T08:14:21;98550.59;;;12.68
6550;BMP280;15142;48.888;9.134;2022-10-31T08:16:52;98546.03;;;12.83
6550;BMP280;15142;48.888;9.134;2022-10-31T08:19:19;98543.38;;;12.93
6550;BMP280;15142;48.888;9.134;2022-10-31T08:21:46;98543.84;;;12.95
6550;BMP280;15142;48.888;9.134;2022-10-31T08:24:13;98541.66;;;13.07
6550;BMP280;15142;48.888;9.134;2022-10-31T08:26:42;98542.63;;;13.11
6550;BMP280;15142;48.888;9.134;2022-10-31T08:29:10;98534.81;;;13.20
6550;BMP280;15142;48.888;9.134;2022-10-31T08:31:37;98538.72;;;13.36
6550;BMP280;15142;48.888;9.134;2022-10-31T08:34:25;98536.09;;;13.41
6550;BMP280;15142;48.888;9.134;2022-10-31T08:37:10;98540.63;;;13.44
6550;BMP280;15142;48.888;9.134;2022-10-31T08:39:44;98531.75;;;13.55
6550;BMP280;15142;48.888;9.134;2022-10-31T08:42:11;98531.44;;;13.61
6550;BMP280;15142;48.888;9.134;2022-10-31T08:44:37;98534.00;;;13.61
6550;BMP280;15142;48.888;9.134;2022-10-31T08:47:04;98524.00;;;13.60
6550;BMP280;15142;48.888;9.134;2022-10-31T08:49:34;98518.50;;;13.66
6550;BMP280;15142;48.888;9.134;2022-10-31T08:52:02;98520.81;;;13.68
6550;BMP280;15142;48.888;9.134;2022-10-31T08:54:33;98516.78;;;13.62
6550;BMP280;15142;48.888;9.134;2022-10-31T08:57:18;98509.56;;;13.64
6550;BMP280;15142;48.888;9.134;2022-10-31T08:59:46;98504.06;;;13.70
6550;BMP280;15142;48.888;9.134;2022-10-31T09:02:13;98507.81;;;13.77
6550;BMP280;15142;48.888;9.134;2022-10-31T09:04:41;98500.13;;;13.77
6550;BMP280;15142;48.888;9.134;2022-10-31T09:07:07;98499.00;;;13.83
6550;BMP280;15142;48.888;9.134;2022-10-31T09:09:34;98506.69;;;13.83
6550;BMP280;15142;48.888;9.134;2022-10-31T09:12:01;98504.50;;;13.90
6550;BMP280;15142;48.888;9.134;2022-10-31T09:14:50;98507.94;;;13.99
6550;BMP280;15142;48.888;9.134;2022-10-31T09:17:25;98512.72;;;14.05
6550;BMP280;15142;48.888;9.134;2022-10-31T09:20:29;98519.41;;;14.20
6550;BMP280;15142;48.888;9.134;2022-10-31T09:22:56;98507.25;;;14.25
6550;BMP280;15142;48.888;9.134;2022-10-31T09:25:23;98503.41;;;14.36
6550;BMP280;15142;48.888;9.134;2022-10-31T09:28:07;98509.53;;;14.53
6550;BMP280;15142;48.888;9.134;2022-10-31T09:30:35;98502.16;;;14.60
6550;BMP280;15142;48.888;9.134;2022-10-31T09:33:03;98502.84;;;14.52
6550;BMP280;15142;48.888;9.134;2022-10-31T09:35:33;98490.88;;;14.48
6550;BMP280;15142;48.888;9.134;2022-10-31T09:38:01;98490.84;;;14.61
6550;BMP280;15142;48.888;9.134;2022-10-31T09:40:32;98491.22;;;14.68
6550;BMP280;15142;48.888;9.134;2022-10-31T09:43:07;98494.53;;;14.82
6550;BMP280;15142;48.888;9.134;2022-10-31T09:45:38;98485.66;;;14.87
6550;BMP280;15142;48.888;9.134;2022-10-31T09:48:34;98495.88;;;14.79
6550;BMP280;15142;48.888;9.134;2022-10-31T09:54:01;98488.16;;;15.14
6550;BMP280;15142;48.888;9.134;2022-10-31T09:56:31;98482.09;;;15.10
6550;BMP280;15142;48.888;9.134;2022-10-31T09:59:00;98481.69;;;15.38
6550;BMP280;15142;48.888;9.134;2022-10-31T10:01:42;98485.72;;;15.52
6550;BMP280;15142;48.888;9.134;2022-10-31T10:04:27;98484.22;;;15.60
6550;BMP280;15142;48.888;9.134;2022-10-31T10:07:13;98487.28;;;15.62
6550;BMP280;15142;48.888;9.134;2022-10-31T10:09:44;98489.13;;;15.70
6550;BMP280;15142;48.888;9.134;2022-10-31T10:12:48;98486.31;;;15.58
6550;BMP280;15142;48.888;9.134;2022-10-31T10:15:37;98482.44;;;15.60
6550;BMP280;15142;48.888;9.134;2022-10-31T10:18:15;98485.09;;;15.77
6550;BMP280;15142;48.888;9.134;2022-10-31T10:20:52;98476.38;;;15.95
6550;BMP280;15142;48.888;9.134;2022-10-31T10:23:43;98480.09;;;16.10
6550;BMP280;15142;48.888;9.134;2022-10-31T10:26:17;98476.50;;;16.28
6550;BMP280;15142;48.888;9.134;2022-10-31T10:28:46;98465.94;;;16.46
6550;BMP280;15142;48.888;9.134;2022-10-31T10:31:15;98463.22;;;16.59
6550;BMP280;15142;48.888;9.134;2022-10-31T10:33:50;98471.72;;;16.68
6550;BMP280;15142;48.888;9.134;2022-10-31T10:36:22;98461.53;;;16.55
6550;BMP280;15142;48.888;9.134;2022-10-31T10:38:54;98454.88;;;16.54
6550;BMP280;15142;48.888;9.134;2022-10-31T10:41:30;98457.28;;;16.59
6550;BMP280;15142;48.888;9.134;2022-10-31T10:43:57;98457.13;;;16.39
6550;BMP280;15142;48.888;9.134;2022-10-31T10:46:27;98454.59;;;16.56
6550;BMP280;15142;48.888;9.134;2022-10-31T10:49:17;98451.72;;;16.65
6550;BMP280;15142;48.888;9.134;2022-10-31T10:51:46;98457.03;;;16.85
6550;BMP280;15142;48.888;9.134;2022-10-31T10:54:33;98445.47;;;16.83
6550;BMP280;15142;48.888;9.134;2022-10-31T10:57:11;98444.13;;;16.94
6550;BMP280;15142;48.888;9.134;2022-10-31T10:59:39;98438.97;;;16.94
6550;BMP280;15142;48.888;9.134;2022-10-31T11:02:16;98431.97;;;17.03
6550;BMP280;15142;48.888;9.134;2022-10-31T11:04:43;98435.34;;;16.86
6550;BMP280;15142;48.888;9.134;2022-10-31T11:07:11;98432.13;;;16.64
6550;BMP280;15142;48.888;9.134;2022-10-31T11:09:38;98430.16;;;16.45
6550;BMP280;15142;48.888;9.134;2022-10-31T11:12:11;98419.69;;;16.58
6550;BMP280;15142;48.888;9.134;2022-10-31T11:14:46;98413.78;;;16.74
6550;BMP280;15142;48.888;9.134;2022-10-31T11:17:20;98405.13;;;16.79
6550;BMP280;15142;48.888;9.134;2022-10-31T11:19:59;98395.41;;;16.92
6550;BMP280;15142;48.888;9.134;2022-10-31T11:22:26;98404.69;;;16.93
6550;BMP280;15142;48.888;9.134;2022-10-31T11:24:52;98409.06;;;17.10
6550;BMP280;15142;48.888;9.134;2022-10-31T11:27:22;98395.94;;;17.31
6550;BMP280;15142;48.888;9.134;2022-10-31T11:29:49;98397.22;;;17.54
6550;BMP280;15142;48.888;9.134;2022-10-31T11:32:19;98391.06;;;17.66
6550;BMP280;15142;48.888;9.134;2022-10-31T11:34:48;98389.94;;;17.56
6550;BMP280;15142;48.888;9.134;2022-10-31T11:37:18;98387.78;;;17.58
6550;BMP280;15142;48.888;9.134;2022-10-31T11:39:46;98376.88;;;17.61
6550;BMP280;15142;48.888;9.134;2022-10-31T11:42:21;98372.75;;;17.60
6550;BMP280;15142;48.888;9.134;2022-10-31T11:44:50;98381.38;;;17.64
6550;BMP280;15142;48.888;9.134;2022-10-31T11:47:23;98376.28;;;17.55
6550;BMP280;15142;48.888;9.134;2022-10-31T11:49:51;98367.09;;;17.66
6550;BMP280;15142;48.888;9.134;2022-10-31T11:52:20;98364.16;;;17.76
6550;BMP280;15142;48.888;9.134;2022-10-31T11:54:50;98358.13;;;17.92
6550;BMP280;15142;48.888;9.134;2022-10-31T11:57:26;98359.66;;;17.93
6550;BMP280;15142;48.888;9.134;2022-10-31T11:59:55;98357.31;;;18.00
6550;BMP280;15142;48.888;9.134;2022-10-31T12:02:22;98358.41;;;17.70
6550;BMP280;15142;48.888;9.134;2022-10-31T12:04:54;98350.28;;;17.80
6550;BMP280;15142;48.888;9.134;2022-10-31T12:07:23;98360.09;;;17.75
6550;BMP280;15142;48.888;9.134;2022-10-31T12:09:50;98347.00;;;17.71
6550;BMP280;15142;48.888;9.134;2022-10-31T12:12:41;98352.44;;;17.78
6550;BMP280;15142;48.888;9.134;2022-10-31T12:15:26;98345.19;;;18.00
6550;BMP280;15142;48.888;9.134;2022-10-31T12:18:00;98345.94;;;18.01
6550;BMP280;15142;48.888;9.134;2022-10-31T12:20:38;98340.63;;;18.18
6550;BMP280;15142;48.888;9.134;2022-10-31T12:23:14;98341.50;;;18.21
6550;BMP280;15142;48.888;9.134;2022-10-31T12:25:46;98325.22;;;18.41
6550;BMP280;15142;48.888;9.134;2022-10-31T12:28:34;98320.97;;;18.57
6550;BMP280;15142;48.888;9.134;2022-10-31T12:31:17;98325.53;;;18.72
6550;BMP280;15142;48.888;9.134;2022-10-31T12:33:53;98310.38;;;18.82
6550;BMP280;15142;48.888;9.134;2022-10-31T12:36:32;98307.53;;;18.63
6550;BMP280;15142;48.888;9.134;2022-10-31T12:39:24;98299.28;;;18.49
6550;BMP280;15142;48.888;9.134;2022-10-31T12:41:52;98288.81;;;18.34
6550;BMP280;15142;48.888;9.134;2022-10-31T12:44:39;98284.84;;;18.17
6550;BMP280;15142;48.888;9.134;2022-10-31T12:47:31;98281.16;;;18.06
6550;BMP280;15142;48.888;9.134;2022-10-31T12:50:14;98289.72;;;17.98
6550;BMP280;15142;48.888;9.134;2022-10-31T12:52:51;98286.13;;;17.91
6550;BMP280;15142;48.888;9.134;2022-10-31T12:55:37;98279.69;;;17.76
6550;BMP280;15142;48.888;9.134;2022-10-31T12:58:07;98276.66;;;17.74
6550;BMP280;15142;48.888;9.134;2022-10-31T13:00:38;98268.03;;;17.70
6550;BMP280;15142;48.888;9.134;2022-10-31T13:03:18;98253.69;;;17.61
6550;BMP280;15142;48.888;9.134;2022-10-31T13:05:50;98248.19;;;17.42
6550;BMP280;15142;48.888;9.134;2022-10-31T13:08:20;98246.97;;;17.40
6550;BMP280;15142;48.888;9.134;2022-10-31T13:10:52;98253.31;;;17.51
6550;BMP280;15142;48.888;9.134;2022-10-31T13:13:26;98238.44;;;17.48
6550;BMP280;15142;48.888;9.134;2022-10-31T13:15:58;98242.47;;;17.57
6550;BMP280;15142;48.888;9.134;2022-10-31T13:18:30;98239.94;;;17.49
6550;BMP280;15142;48.888;9.134;2022-10-31T13:21:00;98236.94;;;17.47
6550;BMP280;15142;48.888;9.134;2022-10-31T13:23:30;98223.50;;;17.53
6550;BMP280;15142;48.888;9.134;2022-10-31T13:26:01;98223.69;;;17.48
6550;BMP280;15142;48.888;9.134;2022-10-31T13:28:34;98228.84;;;17.48
6550;BMP280;15142;48.888;9.134;2022-10-31T13:31:03;98217.47;;;17.49
6550;BMP280;15142;48.888;9.134;2022-10-31T13:33:34;98207.81;;;17.58
6550;BMP280;15142;48.888;9.134;2022-10-31T13:36:14;98216.16;;;17.84
6550;BMP280;15142;48.888;9.134;2022-10-31T13:38:48;98216.38;;;18.11
6550;BMP280;15142;48.888;9.134;2022-10-31T13:41:26;98217.06;;;18.43
6550;BMP280;15142;48.888;9.134;2022-10-31T13:44:00;98222.84;;;18.72
6550;BMP280;15142;48.888;9.134;2022-10-31T13:46:36;98234.38;;;19.10
6550;BMP280;15142;48.888;9.134;2022-10-31T13:49:04;98225.38;;;19.31
6550;BMP280;15142;48.888;9.134;2022-10-31T13:51:32;98225.25;;;19.39
6550;BMP280;15142;48.888;9.134;2022-10-31T13:54:01;98222.59;;;19.36
6550;BMP280;15142;48.888;9.134;2022-10-31T13:56:33;98222.06;;;19.19
6550;BMP280;15142;48.888;9.134;2022-10-31T13:59:15;98209.25;;;19.10
6550;BMP280;15142;48.888;9.134;2022-10-31T14:01:48;98211.13;;;18.86
6550;BMP280;15142;48.888;9.134;2022-10-31T14:04:18;98204.06;;;18.63
6550;BMP280;15142;48.888;9.134;2022-10-31T14:06:53;98197.34;;;18.27
6550;BMP280;15142;48.888;9.134;2022-10-31T14:09:26;98189.38;;;18.00
6550;BMP280;15142;48.888;9.134;2022-10-31T14:11:54;98187.94;;;17.79
6550;BMP280;15142;48.888;9.134;2022-10-31T14:14:24;98191.84;;;17.65
6550;BMP280;15142;48.888;9.134;2022-10-31T14:16:57;98195.13;;;17.53
6550;BMP280;15142;48.888;9.134;2022-10-31T14:19:25;98194.31;;;17.41
6550;BMP280;15142;48.888;9.134;2022-10-31T14:21:52;98187.94;;;17.38
6550;BMP280;15142;48.888;9.134;2022-10-31T14:24:36;98188.44;;;17.32
6550;BMP280;15142;48.888;9.134;2022-10-31T14:29:45;98187.38;;;17.33
6550;BMP280;15142;48.888;9.134;2022-10-31T14:32:20;98178.75;;;17.29
6550;BMP280;15142;48.888;9.134;2022-10-31T14:34:53;98184.34;;;17.31
6550;BMP280;15142;48.888;9.134;2022-10-31T14:37:33;98180.44;;;17.25
6550;BMP280;15142;48.888;9.134;2022-10-31T14:40:14;98178.59;;;17.26
6550;BMP280;15142;48.888;9.134;2022-10-31T14:43:04;98178.09;;;17.32
6550;BMP280;15142;48.888;9.134;2022-10-31T14:45:41;98170.25;;;17.29
6550;BMP280;15142;48.888;9.134;2022-10-31T14:48:23;98174.06;;;17.23
6550;BMP280;15142;48.888;9.134;2022-10-31T14:50:52;98166.91;;;17.28
6550;BMP280;15142;48.888;9.134;2022-10-31T14:53:22;98166.66;;;17.21
6550;BMP280;15142;48.888;9.134;2022-10-31T14:55:52;98165.69;;;17.06
6550;BMP280;15142;48.888;9.134;2022-10-31T14:58:21;98163.72;;;17.03
6550;BMP280;15142;48.888;9.134;2022-10-31T15:00:51;98165.38;;;17.07
6550;BMP280;15142;48.888;9.134;2022-10-31T15:03:24;98169.16;;;17.10
6550;BMP280;15142;48.888;9.134;2022-10-31T15:05:52;98179.63;;;17.13
6550;BMP280;15142;48.888;9.134;2022-10-31T15:08:31;98173.13;;;17.07